sensor_id;sensor_type;location;lat;lon;timestamp;P1;durP1;ratioP1;P2;durP2;ratioP2
20880;SDS011;10600;53.096;8.802;2022-11-15T00:00:39;42.25;;;24.35;;
20880;SDS011;10600;53.096;8.802;2022-11-15T00:01:40;42.25;;;24.65;;
20880;SDS011;10600;53.096;8.802;2022-11-15T00:02:40;41.17;;;24.67;;
20880;SDS011;10600;53.096;8.802;2022-11-15T00:03:41;40.22;;;25.10;;
20880;SDS011;10600;53.096;8.802;2022-11-15T00:04:42;40.47;;;23.65;;
20880;SDS011;10600;53.096;8.802;2022-11-15T00:05:42;41.92;;;23.90;;
20880;SDS011;10600;53.096;8.802;2022-11-15T00:06:43;44.55;;;25.10;;
20880;SDS011;10600;53.096;8.802;2022-11-15T00:07:44;44.92;;;25.80;;
20880;SDS011;10600;53.096;8.802;2022-11-15T00:08:44;45.20;;;24.90;;
20880;SDS011;10600;53.096;8.802;2022-11-15T00:09:45;41.72;;;24.75;;
20880;SDS011;10600;53.096;8.802;2022-11-15T00:10:55;42.10;;;24.80;;
20880;SDS011;10600;53.096;8.802;2022-11-15T00:11:59;45.47;;;24.35;;
20880;SDS011;10600;53.096;8.802;2022-11-15T00:13:03;45.53;;;24.50;;
20880;SDS011;10600;53.096;8.802;2022-11-15T00:14:08;37.85;;;23.05;;
20880;SDS011;10600;53.096;8.802;2022-11-15T00:15:09;45.05;;;24.35;;
20880;SDS011;10600;53.096;8.802;2022-11-15T00:16:10;43.05;;;25.05;;
20880;SDS011;10600;53.096;8.802;2022-11-15T00:17:10;43.03;;;24.88;;
20880;SDS011;10600;53.096;8.802;2022-11-15T00:18:12;40.92;;;24.23;;
20880;SDS011;10600;53.096;8.802;2022-11-15T00:19:13;42.45;;;25.35;;
20880;SDS011;10600;53.096;8.802;2022-11-15T00:20:14;43.42;;;25.38;;
20880;SDS011;10600;53.096;8.802;2022-11-15T00:21:16;39.90;;;23.52;;
20880;SDS011;10600;53.096;8.802;2022-11-15T00:22:17;46.28;;;25.55;;
20880;SDS011;10600;53.096;8.802;2022-11-15T00:23:18;43.33;;;24.70;;
20880;SDS011;10600;53.096;8.802;2022-11-15T00:24:19;41.35;;;23.75;;
20880;SDS011;10600;53.096;8.802;2022-11-15T00:25:19;44.63;;;24.25;;
20880;SDS011;10600;53.096;8.802;2022-11-15T00:26:20;42.10;;;25.17;;
20880;SDS011;10600;53.096;8.802;2022-11-15T00:27:21;40.58;;;23.98;;
20880;SDS011;10600;53.096;8.802;2022-11-15T00:28:21;42.70;;;24.27;;
20880;SDS011;10600;53.096;8.802;2022-11-15T00:29:22;40.65;;;24.65;;
20880;SDS011;10600;53.096;8.802;2022-11-15T00:30:22;41.38;;;24.75;;
20880;SDS011;10600;53.096;8.802;2022-11-15T00:31:23;41.70;;;24.30;;
20880;SDS011;10600;53.096;8.802;2022-11-15T00:32:24;43.75;;;25.02;;
20880;SDS011;10600;53.096;8.802;2022-11-15T00:33:25;39.58;;;23.77;;
20880;SDS011;10600;53.096;8.802;2022-11-15T00:34:25;41.03;;;23.50;;
20880;SDS011;10600;53.096;8.802;2022-11-15T00:35:26;43.78;;;25.70;;
20880;SDS011;10600;53.096;8.802;2022-11-15T00:36:27;43.97;;;25.27;;
20880;SDS011;10600;53.096;8.802;2022-11-15T00:37:27;41.60;;;24.70;;
20880;SDS011;10600;53.096;8.802;2022-11-15T00:38:33;45.88;;;24.48;;
20880;SDS011;10600;53.096;8.802;2022-11-15T00:39:35;43.88;;;24.17;;
20880;SDS011;10600;53.096;8.802;2022-11-15T00:40:35;44.35;;;24.98;;
20880;SDS011;10600;53.096;8.802;2022-11-15T00:41:36;38.08;;;23.35;;
20880;SDS011;10600;53.096;8.802;2022-11-15T00:42:37;43.75;;;24.75;;
20880;SDS011;10600;53.096;8.802;2022-11-15T00:43:37;45.25;;;23.92;;
20880;SDS011;10600;53.096;8.802;2022-11-15T00:44:39;38.20;;;23.25;;
20880;SDS011;10600;53.096;8.802;2022-11-15T00:45:40;44.38;;;24.15;;
20880;SDS011;10600;53.096;8.802;2022-11-15T00:46:41;42.70;;;25.20;;
20880;SDS011;10600;53.096;8.802;2022-11-15T00:47:44;42.70;;;24.55;;
20880;SDS011;10600;53.096;8.802;2022-11-15T00:48:45;39.85;;;23.30;;
20880;SDS011;10600;53.096;8.802;2022-11-15T00:49:46;43.72;;;24.60;;
20880;SDS011;10600;53.096;8.802;2022-11-15T00:50:47;40.45;;;23.58;;
20880;SDS011;10600;53.096;8.802;2022-11-15T00:51:49;39.28;;;24.05;;
20880;SDS011;10600;53.096;8.802;2022-11-15T00:52:49;37.22;;;23.02;;
20880;SDS011;10600;53.096;8.802;2022-11-15T00:53:50;42.47;;;23.90;;
20880;SDS011;10600;53.096;8.802;2022-11-15T00:54:51;40.53;;;24.73;;
20880;SDS011;10600;53.096;8.802;2022-11-15T00:55:52;39.80;;;23.00;;
20880;SDS011;10600;53.096;8.802;2022-11-15T00:56:53;39.65;;;23.55;;
20880;SDS011;10600;53.096;8.802;2022-11-15T00:57:53;42.38;;;23.88;;
20880;SDS011;10600;53.096;8.802;2022-11-15T00:58:54;39.92;;;23.85;;
20880;SDS011;10600;53.096;8.802;2022-11-15T00:59:54;40.00;;;24.00;;
20880;SDS011;10600;53.096;8.802;2022-11-15T01:00:55;37.88;;;23.58;;
20880;SDS011;10600;53.096;8.802;2022-11-15T01:01:56;40.45;;;23.45;;
20880;SDS011;10600;53.096;8.802;2022-11-15T01:02:56;40.63;;;23.08;;
20880;SDS011;10600;53.096;8.802;2022-11-15T01:03:57;42.38;;;24.20;;
20880;SDS011;10600;53.096;8.802;2022-11-15T01:04:58;40.67;;;23.95;;
20880;SDS011;10600;53.096;8.802;2022-11-15T01:05:59;37.40;;;22.85;;
20880;SDS011;10600;53.096;8.802;2022-11-15T01:07:00;41.40;;;25.40;;
20880;SDS011;10600;53.096;8.802;2022-11-15T01:08:01;43.60;;;24.35;;
20880;SDS011;10600;53.096;8.802;2022-11-15T01:09:01;41.85;;;23.88;;
20880;SDS011;10600;53.096;8.802;2022-11-15T01:10:04;42.60;;;24.45;;
20880;SDS011;10600;53.096;8.802;2022-11-15T01:11:06;38.45;;;23.20;;
20880;SDS011;10600;53.096;8.802;2022-11-15T01:12:09;41.97;;;25.20;;
20880;SDS011;10600;53.096;8.802;2022-11-15T01:13:09;39.72;;;23.38;;
20880;SDS011;10600;53.096;8.802;2022-11-15T01:14:10;42.45;;;24.80;;
20880;SDS011;10600;53.096;8.802;2022-11-15T01:15:11;40.30;;;24.05;;
20880;SDS011;10600;53.096;8.802;2022-11-15T01:16:13;38.35;;;24.27;;
20880;SDS011;10600;53.096;8.802;2022-11-15T01:17:16;39.13;;;23.35;;
20880;SDS011;10600;53.096;8.802;2022-11-15T01:18:17;42.97;;;25.95;;
20880;SDS011;10600;53.096;8.802;2022-11-15T01:19:17;41.45;;;24.05;;
20880;SDS011;10600;53.096;8.802;2022-11-15T01:20:18;45.63;;;25.30;;
20880;SDS011;10600;53.096;8.802;2022-11-15T01:21:19;45.30;;;25.23;;
20880;SDS011;10600;53.096;8.802;2022-11-15T01:22:22;45.45;;;25.73;;
20880;SDS011;10600;53.096;8.802;2022-11-15T01:23:22;42.83;;;24.63;;
20880;SDS011;10600;53.096;8.802;2022-11-15T01:24:23;41.53;;;24.50;;
20880;SDS011;10600;53.096;8.802;2022-11-15T01:25:24;46.03;;;25.15;;
20880;SDS011;10600;53.096;8.802;2022-11-15T01:26:24;43.97;;;25.02;;
20880;SDS011;10600;53.096;8.802;2022-11-15T01:27:25;42.45;;;26.10;;
20880;SDS011;10600;53.096;8.802;2022-11-15T01:28:29;44.95;;;24.20;;
20880;SDS011;10600;53.096;8.802;2022-11-15T01:29:31;44.15;;;24.38;;
20880;SDS011;10600;53.096;8.802;2022-11-15T01:30:31;40.53;;;23.30;;
20880;SDS011;10600;53.096;8.802;2022-11-15T01:31:32;42.83;;;25.23;;
20880;SDS011;10600;53.096;8.802;2022-11-15T01:32:33;44.17;;;26.05;;
20880;SDS011;10600;53.096;8.802;2022-11-15T01:33:34;42.40;;;24.92;;
20880;SDS011;10600;53.096;8.802;2022-11-15T01:34:38;43.90;;;24.98;;
20880;SDS011;10600;53.096;8.802;2022-11-15T01:35:39;47.22;;;26.27;;
20880;SDS011;10600;53.096;8.802;2022-11-15T01:36:40;39.08;;;23.52;;
20880;SDS011;10600;53.096;8.802;2022-11-15T01:37:40;43.80;;;25.55;;
20880;SDS011;10600;53.096;8.802;2022-11-15T01:38:41;37.90;;;24.27;;
20880;SDS011;10600;53.096;8.802;2022-11-15T01:39:42;42.05;;;24.42;;
20880;SDS011;10600;53.096;8.802;2022-11-15T01:40:43;38.53;;;23.25;;
20880;SDS011;10600;53.096;8.802;2022-11-15T01:41:43;43.72;;;24.80;;
20880;SDS011;10600;53.096;8.802;2022-11-15T01:42:44;45.13;;;24.73;;
20880;SDS011;10600;53.096;8.802;2022-11-15T01:43:46;43.80;;;24.58;;
20880;SDS011;10600;53.096;8.802;2022-11-15T01:44:49;44.65;;;25.20;;
20880;SDS011;10600;53.096;8.802;2022-11-15T01:45:52;41.70;;;24.92;;
20880;SDS011;10600;53.096;8.802;2022-11-15T01:46:59;50.22;;;28.23;;
20880;SDS011;10600;53.096;8.802;2022-11-15T01:48:02;44.20;;;26.15;;
20880;SDS011;10600;53.096;8.802;2022-11-15T01:49:11;45.28;;;26.38;;
20880;SDS011;10600;53.096;8.802;2022-11-15T01:50:14;42.92;;;24.55;;
20880;SDS011;10600;53.096;8.802;2022-11-15T01:51:19;43.70;;;24.77;;
20880;SDS011;10600;53.096;8.802;2022-11-15T01:52:22;43.60;;;24.98;;
20880;SDS011;10600;53.096;8.802;2022-11-15T01:53:26;41.47;;;24.98;;
20880;SDS011;10600;53.096;8.802;2022-11-15T01:54:28;45.10;;;24.65;;
20880;SDS011;10600;53.096;8.802;2022-11-15T01:55:29;44.72;;;25.65;;
20880;SDS011;10600;53.096;8.802;2022-11-15T01:56:31;43.13;;;24.08;;
20880;SDS011;10600;53.096;8.802;2022-11-15T01:57:37;41.88;;;25.27;;
20880;SDS011;10600;53.096;8.802;2022-11-15T01:58:39;44.53;;;24.63;;
20880;SDS011;10600;53.096;8.802;2022-11-15T01:59:42;43.88;;;25.05;;
20880;SDS011;10600;53.096;8.802;2022-11-15T02:00:44;46.15;;;24.98;;
20880;SDS011;10600;53.096;8.802;2022-11-15T02:01:45;43.70;;;26.08;;
20880;SDS011;10600;53.096;8.802;2022-11-15T02:02:46;44.10;;;24.30;;
20880;SDS011;10600;53.096;8.802;2022-11-15T02:03:51;49.53;;;26.35;;
20880;SDS011;10600;53.096;8.802;2022-11-15T02:04:58;43.35;;;24.52;;
20880;SDS011;10600;53.096;8.802;2022-11-15T02:05:59;45.47;;;26.00;;
20880;SDS011;10600;53.096;8.802;2022-11-15T02:07:01;45.08;;;25.85;;
20880;SDS011;10600;53.096;8.802;2022-11-15T02:08:04;46.05;;;25.80;;
20880;SDS011;10600;53.096;8.802;2022-11-15T02:09:06;44.17;;;26.05;;
20880;SDS011;10600;53.096;8.802;2022-11-15T02:10:08;46.55;;;25.50;;
20880;SDS011;10600;53.096;8.802;2022-11-15T02:11:17;42.92;;;23.88;;
20880;SDS011;10600;53.096;8.802;2022-11-15T02:12:19;42.83;;;25.30;;
20880;SDS011;10600;53.096;8.802;2022-11-15T02:13:21;40.72;;;24.02;;
20880;SDS011;10600;53.096;8.802;2022-11-15T02:14:22;38.42;;;22.65;;
20880;SDS011;10600;53.096;8.802;2022-11-15T02:15:26;41.80;;;22.52;;
20880;SDS011;10600;53.096;8.802;2022-11-15T02:16:37;39.30;;;23.50;;
20880;SDS011;10600;53.096;8.802;2022-11-15T02:19:28;35.60;;;22.05;;
20880;SDS011;10600;53.096;8.802;2022-11-15T02:21:41;41.70;;;23.17;;
20880;SDS011;10600;53.096;8.802;2022-11-15T02:32:27;30.70;;;19.67;;
20880;SDS011;10600;53.096;8.802;2022-11-15T02:35:37;35.35;;;19.88;;
20880;SDS011;10600;53.096;8.802;2022-11-15T02:36:42;33.30;;;20.02;;
20880;SDS011;10600;53.096;8.802;2022-11-15T02:37:57;32.38;;;20.17;;
20880;SDS011;10600;53.096;8.802;2022-11-15T02:41:53;32.95;;;19.30;;
20880;SDS011;10600;53.096;8.802;2022-11-15T02:45:03;32.92;;;20.92;;
20880;SDS011;10600;53.096;8.802;2022-11-15T02:46:09;36.47;;;20.42;;
20880;SDS011;10600;53.096;8.802;2022-11-15T02:47:16;34.10;;;19.77;;
20880;SDS011;10600;53.096;8.802;2022-11-15T02:48:19;32.75;;;20.73;;
20880;SDS011;10600;53.096;8.802;2022-11-15T02:49:23;30.85;;;18.75;;
20880;SDS011;10600;53.096;8.802;2022-11-15T02:50:27;32.20;;;19.58;;
20880;SDS011;10600;53.096;8.802;2022-11-15T02:51:29;32.28;;;19.13;;
20880;SDS011;10600;53.096;8.802;2022-11-15T02:52:30;31.38;;;19.00;;
20880;SDS011;10600;53.096;8.802;2022-11-15T02:53:31;34.53;;;20.90;;
20880;SDS011;10600;53.096;8.802;2022-11-15T02:54:32;31.40;;;19.85;;
20880;SDS011;10600;53.096;8.802;2022-11-15T02:55:35;28.65;;;18.30;;
20880;SDS011;10600;53.096;8.802;2022-11-15T02:56:39;33.33;;;19.40;;
20880;SDS011;10600;53.096;8.802;2022-11-15T02:57:45;32.75;;;19.10;;
20880;SDS011;10600;53.096;8.802;2022-11-15T02:59:00;31.00;;;18.30;;
20880;SDS011;10600;53.096;8.802;2022-11-15T03:04:58;33.10;;;20.25;;
20880;SDS011;10600;53.096;8.802;2022-11-15T03:07:28;30.10;;;18.80;;
20880;SDS011;10600;53.096;8.802;2022-11-15T03:09:54;31.30;;;20.00;;
20880;SDS011;10600;53.096;8.802;2022-11-15T03:12:14;34.65;;;19.85;;
20880;SDS011;10600;53.096;8.802;2022-11-15T03:15:00;34.15;;;19.95;;
20880;SDS011;10600;53.096;8.802;2022-11-15T03:16:07;33.53;;;19.02;;
20880;SDS011;10600;53.096;8.802;2022-11-15T03:17:22;33.85;;;20.45;;
20880;SDS011;10600;53.096;8.802;2022-11-15T03:18:28;36.00;;;21.75;;
20880;SDS011;10600;53.096;8.802;2022-11-15T03:19:57;32.10;;;20.10;;
20880;SDS011;10600;53.096;8.802;2022-11-15T03:20:57;33.30;;;20.13;;
20880;SDS011;10600;53.096;8.802;2022-11-15T03:22:02;29.92;;;19.52;;
20880;SDS011;10600;53.096;8.802;2022-11-15T03:23:07;31.13;;;20.23;;
20880;SDS011;10600;53.096;8.802;2022-11-15T03:24:09;29.55;;;19.67;;
20880;SDS011;10600;53.096;8.802;2022-11-15T03:25:13;39.55;;;21.38;;
20880;SDS011;10600;53.096;8.802;2022-11-15T03:26:19;39.60;;;21.13;;
20880;SDS011;10600;53.096;8.802;2022-11-15T03:27:24;37.42;;;21.52;;
20880;SDS011;10600;53.096;8.802;2022-11-15T03:28:32;36.72;;;21.10;;
20880;SDS011;10600;53.096;8.802;2022-11-15T03:29:37;38.72;;;21.38;;
20880;SDS011;10600;53.096;8.802;2022-11-15T03:30:42;35.25;;;20.38;;
20880;SDS011;10600;53.096;8.802;2022-11-15T03:31:49;36.08;;;20.33;;
20880;SDS011;10600;53.096;8.802;2022-11-15T03:32:58;33.70;;;19.92;;
20880;SDS011;10600;53.096;8.802;2022-11-15T03:34:02;32.38;;;21.15;;
20880;SDS011;10600;53.096;8.802;2022-11-15T03:35:20;34.13;;;20.80;;
20880;SDS011;10600;53.096;8.802;2022-11-15T03:36:22;41.28;;;21.70;;
20880;SDS011;10600;53.096;8.802;2022-11-15T03:37:27;32.88;;;19.42;;
20880;SDS011;10600;53.096;8.802;2022-11-15T03:38:36;33.30;;;20.70;;
20880;SDS011;10600;53.096;8.802;2022-11-15T03:39:38;37.17;;;20.52;;
20880;SDS011;10600;53.096;8.802;2022-11-15T03:40:40;39.83;;;22.42;;
20880;SDS011;10600;53.096;8.802;2022-11-15T03:43:42;32.60;;;19.42;;
20880;SDS011;10600;53.096;8.802;2022-11-15T03:44:55;34.80;;;20.48;;
20880;SDS011;10600;53.096;8.802;2022-11-15T03:46:05;34.30;;;19.58;;
20880;SDS011;10600;53.096;8.802;2022-11-15T03:47:17;31.33;;;18.98;;
20880;SDS011;10600;53.096;8.802;2022-11-15T03:48:22;35.47;;;20.83;;
20880;SDS011;10600;53.096;8.802;2022-11-15T03:49:31;33.35;;;20.05;;
20880;SDS011;10600;53.096;8.802;2022-11-15T03:50:34;33.33;;;20.27;;
20880;SDS011;10600;53.096;8.802;2022-11-15T03:51:35;34.78;;;20.83;;
20880;SDS011;10600;53.096;8.802;2022-11-15T03:52:36;39.58;;;22.38;;
20880;SDS011;10600;53.096;8.802;2022-11-15T03:53:37;39.90;;;22.08;;
20880;SDS011;10600;53.096;8.802;2022-11-15T03:54:47;32.90;;;20.35;;
20880;SDS011;10600;53.096;8.802;2022-11-15T03:55:52;33.90;;;21.08;;
20880;SDS011;10600;53.096;8.802;2022-11-15T03:56:53;37.35;;;21.52;;
20880;SDS011;10600;53.096;8.802;2022-11-15T03:57:54;33.13;;;20.77;;
20880;SDS011;10600;53.096;8.802;2022-11-15T03:58:58;35.85;;;22.00;;
20880;SDS011;10600;53.096;8.802;2022-11-15T03:59:59;34.53;;;21.30;;
20880;SDS011;10600;53.096;8.802;2022-11-15T04:00:59;33.67;;;21.30;;
20880;SDS011;10600;53.096;8.802;2022-11-15T04:02:00;37.10;;;22.38;;
20880;SDS011;10600;53.096;8.802;2022-11-15T04:03:01;40.22;;;21.65;;
20880;SDS011;10600;53.096;8.802;2022-11-15T04:04:01;35.92;;;21.42;;
20880;SDS011;10600;53.096;8.802;2022-11-15T04:05:02;42.90;;;22.42;;
20880;SDS011;10600;53.096;8.802;2022-11-15T04:06:03;36.08;;;20.73;;
20880;SDS011;10600;53.096;8.802;2022-11-15T04:07:04;34.90;;;20.02;;
20880;SDS011;10600;53.096;8.802;2022-11-15T04:08:05;37.05;;;20.55;;
20880;SDS011;10600;53.096;8.802;2022-11-15T04:09:06;31.63;;;18.88;;
20880;SDS011;10600;53.096;8.802;2022-11-15T04:10:10;34.35;;;21.08;;
20880;SDS011;10600;53.096;8.802;2022-11-15T04:11:11;38.58;;;19.55;;
20880;SDS011;10600;53.096;8.802;2022-11-15T04:12:12;33.85;;;19.73;;
20880;SDS011;10600;53.096;8.802;2022-11-15T04:13:12;32.90;;;19.88;;
20880;SDS011;10600;53.096;8.802;2022-11-15T04:14:13;34.88;;;19.85;;
20880;SDS011;10600;53.096;8.802;2022-11-15T04:15:18;36.60;;;20.48;;
20880;SDS011;10600;53.096;8.802;2022-11-15T04:16:20;34.15;;;19.60;;
20880;SDS011;10600;53.096;8.802;2022-11-15T04:17:21;30.90;;;19.17;;
20880;SDS011;10600;53.096;8.802;2022-11-15T04:18:22;33.60;;;20.92;;
20880;SDS011;10600;53.096;8.802;2022-11-15T04:19:22;32.28;;;18.85;;
20880;SDS011;10600;53.096;8.802;2022-11-15T04:20:41;30.50;;;18.88;;
20880;SDS011;10600;53.096;8.802;2022-11-15T04:22:01;34.22;;;19.02;;
20880;SDS011;10600;53.096;8.802;2022-11-15T04:23:21;30.42;;;18.35;;
20880;SDS011;10600;53.096;8.802;2022-11-15T04:24:41;35.88;;;18.90;;
20880;SDS011;10600;53.096;8.802;2022-11-15T04:25:42;36.25;;;19.63;;
20880;SDS011;10600;53.096;8.802;2022-11-15T04:26:44;30.45;;;18.58;;
20880;SDS011;10600;53.096;8.802;2022-11-15T04:27:44;33.28;;;19.55;;
20880;SDS011;10600;53.096;8.802;2022-11-15T04:28:45;32.75;;;18.88;;
20880;SDS011;10600;53.096;8.802;2022-11-15T04:30:05;30.80;;;18.20;;
20880;SDS011;10600;53.096;8.802;2022-11-15T04:31:06;30.92;;;19.52;;
20880;SDS011;10600;53.096;8.802;2022-11-15T04:32:07;31.85;;;19.08;;
20880;SDS011;10600;53.096;8.802;2022-11-15T04:33:07;32.75;;;18.27;;
20880;SDS011;10600;53.096;8.802;2022-11-15T04:34:08;34.40;;;20.10;;
20880;SDS011;10600;53.096;8.802;2022-11-15T04:35:09;31.10;;;19.10;;
20880;SDS011;10600;53.096;8.802;2022-11-15T04:36:09;30.00;;;17.38;;
20880;SDS011;10600;53.096;8.802;2022-11-15T04:37:29;33.58;;;18.55;;
20880;SDS011;10600;53.096;8.802;2022-11-15T04:38:29;31.85;;;18.50;;
20880;SDS011;10600;53.096;8.802;2022-11-15T04:39:30;32.80;;;19.08;;
20880;SDS011;10600;53.096;8.802;2022-11-15T04:40:31;28.83;;;18.23;;
20880;SDS011;10600;53.096;8.802;2022-11-15T04:41:31;29.25;;;17.77;;
20880;SDS011;10600;53.096;8.802;2022-11-15T04:42:32;33.67;;;19.65;;
20880;SDS011;10600;53.096;8.802;2022-11-15T04:43:33;34.22;;;18.55;;
20880;SDS011;10600;53.096;8.802;2022-11-15T04:44:33;29.90;;;18.38;;
20880;SDS011;10600;53.096;8.802;2022-11-15T04:45:34;32.33;;;18.65;;
20880;SDS011;10600;53.096;8.802;2022-11-15T04:46:35;25.92;;;17.40;;
20880;SDS011;10600;53.096;8.802;2022-11-15T04:47:35;29.95;;;17.60;;
20880;SDS011;10600;53.096;8.802;2022-11-15T04:48:36;28.77;;;17.95;;
20880;SDS011;10600;53.096;8.802;2022-11-15T04:49:37;29.33;;;16.83;;
20880;SDS011;10600;53.096;8.802;2022-11-15T04:50:38;26.65;;;17.00;;
20880;SDS011;10600;53.096;8.802;2022-11-15T04:51:38;25.90;;;16.52;;
20880;SDS011;10600;53.096;8.802;2022-11-15T04:52:42;28.23;;;17.65;;
20880;SDS011;10600;53.096;8.802;2022-11-15T04:53:49;29.23;;;17.15;;
20880;SDS011;10600;53.096;8.802;2022-11-15T04:54:50;28.45;;;17.15;;
20880;SDS011;10600;53.096;8.802;2022-11-15T04:55:50;27.20;;;16.33;;
20880;SDS011;10600;53.096;8.802;2022-11-15T04:56:51;30.08;;;16.70;;
20880;SDS011;10600;53.096;8.802;2022-11-15T04:58:00;32.25;;;18.30;;
20880;SDS011;10600;53.096;8.802;2022-11-15T04:59:02;29.60;;;17.73;;
20880;SDS011;10600;53.096;8.802;2022-11-15T05:00:07;22.92;;;14.95;;
20880;SDS011;10600;53.096;8.802;2022-11-15T05:01:10;27.13;;;16.25;;
20880;SDS011;10600;53.096;8.802;2022-11-15T05:02:14;28.17;;;16.65;;
20880;SDS011;10600;53.096;8.802;2022-11-15T05:03:14;25.80;;;16.70;;
20880;SDS011;10600;53.096;8.802;2022-11-15T05:04:34;25.52;;;16.27;;
20880;SDS011;10600;53.096;8.802;2022-11-15T05:05:34;27.92;;;16.67;;
20880;SDS011;10600;53.096;8.802;2022-11-15T05:06:35;29.52;;;16.92;;
20880;SDS011;10600;53.096;8.802;2022-11-15T05:07:36;27.25;;;17.27;;
20880;SDS011;10600;53.096;8.802;2022-11-15T05:08:37;30.45;;;18.20;;
20880;SDS011;10600;53.096;8.802;2022-11-15T05:09:37;26.30;;;16.40;;
20880;SDS011;10600;53.096;8.802;2022-11-15T05:10:38;26.67;;;16.75;;
20880;SDS011;10600;53.096;8.802;2022-11-15T05:11:38;28.80;;;17.27;;
20880;SDS011;10600;53.096;8.802;2022-11-15T05:12:39;26.05;;;16.48;;
20880;SDS011;10600;53.096;8.802;2022-11-15T05:13:43;22.42;;;14.80;;
20880;SDS011;10600;53.096;8.802;2022-11-15T05:14:43;31.20;;;17.35;;
20880;SDS011;10600;53.096;8.802;2022-11-15T05:15:44;24.63;;;16.30;;
20880;SDS011;10600;53.096;8.802;2022-11-15T05:16:45;27.75;;;17.23;;
20880;SDS011;10600;53.096;8.802;2022-11-15T05:17:45;25.73;;;16.75;;
20880;SDS011;10600;53.096;8.802;2022-11-15T05:18:46;31.63;;;18.48;;
20880;SDS011;10600;53.096;8.802;2022-11-15T05:19:47;25.58;;;16.90;;
20880;SDS011;10600;53.096;8.802;2022-11-15T05:20:47;29.65;;;16.27;;
20880;SDS011;10600;53.096;8.802;2022-11-15T05:21:48;26.75;;;16.52;;
20880;SDS011;10600;53.096;8.802;2022-11-15T05:22:48;25.15;;;16.02;;
20880;SDS011;10600;53.096;8.802;2022-11-15T05:23:49;25.67;;;16.08;;
20880;SDS011;10600;53.096;8.802;2022-11-15T05:24:50;24.83;;;16.08;;
20880;SDS011;10600;53.096;8.802;2022-11-15T05:25:50;25.63;;;16.15;;
20880;SDS011;10600;53.096;8.802;2022-11-15T05:26:51;27.52;;;16.25;;
20880;SDS011;10600;53.096;8.802;2022-11-15T05:27:51;24.17;;;16.83;;
20880;SDS011;10600;53.096;8.802;2022-11-15T05:28:53;28.38;;;16.35;;
20880;SDS011;10600;53.096;8.802;2022-11-15T05:29:57;24.13;;;15.30;;
20880;SDS011;10600;53.096;8.802;2022-11-15T05:31:01;26.05;;;15.77;;
20880;SDS011;10600;53.096;8.802;2022-11-15T05:32:07;27.00;;;16.38;;
20880;SDS011;10600;53.096;8.802;2022-11-15T05:33:10;38.83;;;16.88;;
20880;SDS011;10600;53.096;8.802;2022-11-15T05:34:11;22.88;;;15.57;;
20880;SDS011;10600;53.096;8.802;2022-11-15T05:35:13;29.77;;;16.83;;
20880;SDS011;10600;53.096;8.802;2022-11-15T05:36:25;23.67;;;15.50;;
20880;SDS011;10600;53.096;8.802;2022-11-15T05:37:31;23.35;;;16.00;;
20880;SDS011;10600;53.096;8.802;2022-11-15T05:38:31;24.83;;;15.65;;
20880;SDS011;10600;53.096;8.802;2022-11-15T05:39:32;24.45;;;15.95;;
20880;SDS011;10600;53.096;8.802;2022-11-15T05:40:33;22.98;;;15.90;;
20880;SDS011;10600;53.096;8.802;2022-11-15T05:41:44;23.80;;;15.57;;
20880;SDS011;10600;53.096;8.802;2022-11-15T05:42:54;26.95;;;17.02;;
20880;SDS011;10600;53.096;8.802;2022-11-15T05:43:55;23.50;;;15.10;;
20880;SDS011;10600;53.096;8.802;2022-11-15T05:44:57;26.55;;;16.50;;
20880;SDS011;10600;53.096;8.802;2022-11-15T05:45:59;25.83;;;17.08;;
20880;SDS011;10600;53.096;8.802;2022-11-15T05:47:01;23.48;;;16.92;;
20880;SDS011;10600;53.096;8.802;2022-11-15T05:48:05;26.58;;;16.52;;
20880;SDS011;10600;53.096;8.802;2022-11-15T05:49:09;26.90;;;17.38;;
20880;SDS011;10600;53.096;8.802;2022-11-15T05:50:13;28.25;;;17.38;;
20880;SDS011;10600;53.096;8.802;2022-11-15T05:51:15;26.08;;;16.85;;
20880;SDS011;10600;53.096;8.802;2022-11-15T05:52:21;26.05;;;17.08;;
20880;SDS011;10600;53.096;8.802;2022-11-15T05:53:24;23.52;;;17.27;;
20880;SDS011;10600;53.096;8.802;2022-11-15T05:54:26;25.08;;;16.70;;
20880;SDS011;10600;53.096;8.802;2022-11-15T05:55:27;27.52;;;17.05;;
20880;SDS011;10600;53.096;8.802;2022-11-15T05:56:28;25.33;;;16.27;;
20880;SDS011;10600;53.096;8.802;2022-11-15T05:57:29;25.70;;;15.55;;
20880;SDS011;10600;53.096;8.802;2022-11-15T05:58:31;26.13;;;16.17;;
20880;SDS011;10600;53.096;8.802;2022-11-15T05:59:32;29.73;;;17.50;;
20880;SDS011;10600;53.096;8.802;2022-11-15T06:00:34;22.73;;;16.13;;
20880;SDS011;10600;53.096;8.802;2022-11-15T06:01:35;25.90;;;17.77;;
20880;SDS011;10600;53.096;8.802;2022-11-15T06:02:35;24.63;;;17.67;;
20880;SDS011;10600;53.096;8.802;2022-11-15T06:03:36;26.92;;;16.50;;
20880;SDS011;10600;53.096;8.802;2022-11-15T06:04:37;26.02;;;17.50;;
20880;SDS011;10600;53.096;8.802;2022-11-15T06:05:37;26.00;;;17.27;;
20880;SDS011;10600;53.096;8.802;2022-11-15T06:06:38;27.42;;;16.98;;
20880;SDS011;10600;53.096;8.802;2022-11-15T06:07:39;24.08;;;16.58;;
20880;SDS011;10600;53.096;8.802;2022-11-15T06:08:39;26.60;;;16.00;;
20880;SDS011;10600;53.096;8.802;2022-11-15T06:09:40;25.00;;;15.85;;
20880;SDS011;10600;53.096;8.802;2022-11-15T06:10:41;24.83;;;17.35;;
20880;SDS011;10600;53.096;8.802;2022-11-15T06:11:41;28.35;;;20.33;;
20880;SDS011;10600;53.096;8.802;2022-11-15T06:12:42;29.17;;;19.63;;
20880;SDS011;10600;53.096;8.802;2022-11-15T06:13:43;34.30;;;24.15;;
20880;SDS011;10600;53.096;8.802;2022-11-15T06:14:43;31.20;;;22.88;;
20880;SDS011;10600;53.096;8.802;2022-11-15T06:15:44;25.95;;;20.02;;
20880;SDS011;10600;53.096;8.802;2022-11-15T06:16:44;26.98;;;20.25;;
20880;SDS011;10600;53.096;8.802;2022-11-15T06:17:45;26.73;;;18.42;;
20880;SDS011;10600;53.096;8.802;2022-11-15T06:18:46;25.55;;;18.23;;
20880;SDS011;10600;53.096;8.802;2022-11-15T06:19:47;24.85;;;18.08;;
20880;SDS011;10600;53.096;8.802;2022-11-15T06:20:47;26.42;;;17.92;;
20880;SDS011;10600;53.096;8.802;2022-11-15T06:21:48;25.70;;;17.70;;
20880;SDS011;10600;53.096;8.802;2022-11-15T06:22:49;26.05;;;16.67;;
20880;SDS011;10600;53.096;8.802;2022-11-15T06:23:49;23.88;;;16.63;;
20880;SDS011;10600;53.096;8.802;2022-11-15T06:24:50;24.02;;;16.13;;
20880;SDS011;10600;53.096;8.802;2022-11-15T06:25:50;23.95;;;16.58;;
20880;SDS011;10600;53.096;8.802;2022-11-15T06:26:51;29.23;;;16.92;;
20880;SDS011;10600;53.096;8.802;2022-11-15T06:27:52;24.42;;;17.17;;
20880;SDS011;10600;53.096;8.802;2022-11-15T06:28:53;27.85;;;15.80;;
20880;SDS011;10600;53.096;8.802;2022-11-15T06:29:57;25.17;;;16.80;;
20880;SDS011;10600;53.096;8.802;2022-11-15T06:31:03;23.25;;;17.48;;
20880;SDS011;10600;53.096;8.802;2022-11-15T06:32:04;31.13;;;16.75;;
20880;SDS011;10600;53.096;8.802;2022-11-15T06:33:05;26.05;;;16.05;;
20880;SDS011;10600;53.096;8.802;2022-11-15T06:34:06;26.25;;;16.33;;
20880;SDS011;10600;53.096;8.802;2022-11-15T06:35:07;28.77;;;16.60;;
20880;SDS011;10600;53.096;8.802;2022-11-15T06:36:09;30.75;;;16.95;;
20880;SDS011;10600;53.096;8.802;2022-11-15T06:37:13;26.88;;;16.20;;
20880;SDS011;10600;53.096;8.802;2022-11-15T06:38:14;26.23;;;16.23;;
20880;SDS011;10600;53.096;8.802;2022-11-15T06:39:14;27.05;;;17.48;;